sensor_id;sensor_type;location;lat;lon;timestamp;temperature;humidity
22984;DHT22;11658;48.908;9.140;2023-02-03T04:02:30;6.70;99.90
22984;DHT22;11658;48.908;9.140;2023-02-03T04:04:59;6.70;99.90
22984;DHT22;11658;48.908;9.140;2023-02-03T04:07:40;6.70;99.90
22984;DHT22;11658;48.908;9.140;2023-02-03T04:12:49;6.70;99.90
22984;DHT22;11658;48.908;9.140;2023-02-03T04:15:14;6.60;99.90
22984;DHT22;11658;48.908;9.140;2023-02-03T04:17:40;6.60;99.90
22984;DHT22;11658;48.908;9.140;2023-02-03T04:20:06;6.40;99.90
22984;DHT22;11658;48.908;9.140;2023-02-03T04:22:32;6.40;99.90
22984;DHT22;11658;48.908;9.140;2023-02-03T04:24:58;6.40;99.90
22984;DHT22;11658;48.908;9.140;2023-02-03T04:27:27;6.30;99.90
22984;DHT22;11658;48.908;9.140;2023-02-03T04:29:52;6.30;99.90
22984;DHT22;11658;48.908;9.140;2023-02-03T04:32:18;6.30;99.90
22984;DHT22;11658;48.908;9.140;2023-02-03T04:34:44;6.20;99.90
22984;DHT22;11658;48.908;9.140;2023-02-03T04:37:10;6.20;99.90
22984;DHT22;11658;48.908;9.140;2023-02-03T04:39:36;6.20;99.90
22984;DHT22;11658;48.908;9.140;2023-02-03T04:42:01;6.20;99.90
22984;DHT22;11658;48.908;9.140;2023-02-03T04:44:27;6.20;99.90
22984;DHT22;11658;48.908;9.140;2023-02-03T04:46:53;6.20;99.90
22984;DHT22;11658;48.908;9.140;2023-02-03T04:49:18;6.20;99.90
22984;DHT22;11658;48.908;9.140;2023-02-03T04:51:44;6.20;99.90
22984;DHT22;11658;48.908;9.140;2023-02-03T04:54:10;6.20;99.90
22984;DHT22;11658;48.908;9.140;2023-02-03T04:56:36;6.20;99.90
22984;DHT22;11658;48.908;9.140;2023-02-03T04:59:02;6.20;99.90
22984;DHT22;11658;48.908;9.140;2023-02-03T05:01:28;6.20;99.90
22984;DHT22;11658;48.908;9.140;2023-02-03T05:03:53;6.20;99.90
22984;DHT22;11658;48.908;9.140;2023-02-03T05:06:27;6.20;99.90
22984;DHT22;11658;48.908;9.140;2023-02-03T05:08:59;6.20;99.90
22984;DHT22;11658;48.908;9.140;2023-02-03T05:11:25;6.10;99.90
22984;DHT22;11658;48.908;9.140;2023-02-03T05:13:51;6.10;99.90
22984;DHT22;11658;48.908;9.140;2023-02-03T05:16:17;6.00;99.90
22984;DHT22;11658;48.908;9.140;2023-02-03T05:18:43;6.00;99.90
22984;DHT22;11658;48.908;9.140;2023-02-03T05:21:08;6.00;99.90
22984;DHT22;11658;48.908;9.140;2023-02-03T05:23:34;6.00;99.90
22984;DHT22;11658;48.908;9.140;2023-02-03T05:25:59;6.00;99.90
22984;DHT22;11658;48.908;9.140;2023-02-03T05:28:25;6.00;99.90
22984;DHT22;11658;48.908;9.140;2023-02-03T05:30:50;6.10;99.90
22984;DHT22;11658;48.908;9.140;2023-02-03T05:33:16;6.10;99.90
22984;DHT22;11658;48.908;9.140;2023-02-03T05:35:42;6.10;99.90
22984;DHT22;11658;48.908;9.140;2023-02-03T05:38:08;6.10;99.90
22984;DHT22;11658;48.908;9.140;2023-02-03T05:40:34;6.20;99.90
22984;DHT22;11658;48.908;9.140;2023-02-03T05:43:18;6.20;99.90
22984;DHT22;11658;48.908;9.140;2023-02-03T05:45:44;6.20;99.90
22984;DHT22;11658;48.908;9.140;2023-02-03T05:48:10;6.20;99.90
22984;DHT22;11658;48.908;9.140;2023-02-03T05:50:36;6.20;99.90
22984;DHT22;11658;48.908;9.140;2023-02-03T05:53:04;6.30;99.90
22984;DHT22;11658;48.908;9.140;2023-02-03T05:55:30;6.20;99.90
22984;DHT22;11658;48.908;9.140;2023-02-03T05:57:56;6.20;99.90
22984;DHT22;11658;48.908;9.140;2023-02-03T06:00:23;6.20;99.90
22984;DHT22;11658;48.908;9.140;2023-02-03T06:02:52;6.20;99.90
22984;DHT22;11658;48.908;9.140;2023-02-03T06:05:19;6.20;99.90
22984;DHT22;11658;48.908;9.140;2023-02-03T06:07:45;6.30;99.90
22984;DHT22;11658;48.908;9.140;2023-02-03T06:10:10;6.30;99.90
22984;DHT22;11658;48.908;9.140;2023-02-03T06:12:37;6.30;99.90
22984;DHT22;11658;48.908;9.140;2023-02-03T06:15:03;6.40;99.90
22984;DHT22;11658;48.908;9.140;2023-02-03T06:17:29;6.40;99.90
22984;DHT22;11658;48.908;9.140;2023-02-03T06:19:54;6.40;99.90
22984;DHT22;11658;48.908;9.140;2023-02-03T06:22:20;6.40;99.90
22984;DHT22;11658;48.908;9.140;2023-02-03T06:24:45;6.40;99.90
22984;DHT22;11658;48.908;9.140;2023-02-03T06:27:13;6.30;99.90
22984;DHT22;11658;48.908;9.140;2023-02-03T06:29:39;6.30;99.90
22984;DHT22;11658;48.908;9.140;2023-02-03T06:32:05;6.30;99.90
22984;DHT22;11658;48.908;9.140;2023-02-03T06:34:31;6.30;99.90
22984;DHT22;11658;48.908;9.140;2023-02-03T06:36:57;6.30;99.90
22984;DHT22;11658;48.908;9.140;2023-02-03T06:39:23;6.20;99.90
22984;DHT22;11658;48.908;9.140;2023-02-03T06:41:48;6.20;99.90
22984;DHT22;11658;48.908;9.140;2023-02-03T06:44:16;6.10;99.90
22984;DHT22;11658;48.908;9.140;2023-02-03T06:46:42;6.00;99.90
22984;DHT22;11658;48.908;9.140;2023-02-03T06:49:08;6.00;99.90
22984;DHT22;11658;48.908;9.140;2023-02-03T06:51:33;5.90;99.90
22984;DHT22;11658;48.908;9.140;2023-02-03T06:53:59;5.90;99.90
22984;DHT22;11658;48.908;9.140;2023-02-03T06:56:25;5.90;99.90
22984;DHT22;11658;48.908;9.140;2023-02-03T06:58:50;6.00;99.90
22984;DHT22;11658;48.908;9.140;2023-02-03T07:01:16;6.00;99.90
22984;DHT22;11658;48.908;9.140;2023-02-03T07:03:41;6.00;99.90
22984;DHT22;11658;48.908;9.140;2023-02-03T07:06:07;6.00;99.90
22984;DHT22;11658;48.908;9.140;2023-02-03T07:08:33;6.00;99.90
22984;DHT22;11658;48.908;9.140;2023-02-03T07:10:58;5.90;99.90
22984;DHT22;11658;48.908;9.140;2023-02-03T07:13:24;6.00;99.90
22984;DHT22;11658;48.908;9.140;2023-02-03T07:15:50;6.00;99.90
22984;DHT22;11658;48.908;9.140;2023-02-03T07:18:15;6.10;99.90
22984;DHT22;11658;48.908;9.140;2023-02-03T07:20:42;6.20;99.90
22984;DHT22;11658;48.908;9.140;2023-02-03T07:23:08;6.20;99.90
22984;DHT22;11658;48.908;9.140;2023-02-03T07:25:33;6.20;99.90
22984;DHT22;11658;48.908;9.140;2023-02-03T07:27:59;6.20;99.90
22984;DHT22;11658;48.908;9.140;2023-02-03T07:30:25;6.20;99.90
22984;DHT22;11658;48.908;9.140;2023-02-03T07:32:51;6.20;99.90
22984;DHT22;11658;48.908;9.140;2023-02-03T07:35:17;6.20;99.90
22984;DHT22;11658;48.908;9.140;2023-02-03T07:37:43;6.20;99.90
22984;DHT22;11658;48.908;9.140;2023-02-03T07:40:10;6.30;99.90
22984;DHT22;11658;48.908;9.140;2023-02-03T07:42:40;6.30;99.90
22984;DHT22;11658;48.908;9.140;2023-02-03T07:45:07;6.30;99.90
22984;DHT22;11658;48.908;9.140;2023-02-03T07:47:33;6.40;99.90
22984;DHT22;11658;48.908;9.140;2023-02-03T07:49:58;6.40;99.90
22984;DHT22;11658;48.908;9.140;2023-02-03T07:52:24;6.40;99.90
22984;DHT22;11658;48.908;9.140;2023-02-03T07:54:49;6.50;99.90
22984;DHT22;11658;48.908;9.140;2023-02-03T07:57:15;6.50;99.90
22984;DHT22;11658;48.908;9.140;2023-02-03T07:59:40;6.60;99.90
22984;DHT22;11658;48.908;9.140;2023-02-03T08:02:07;6.60;99.90
22984;DHT22;11658;48.908;9.140;2023-02-03T08:04:33;6.60;99.90
22984;DHT22;11658;48.908;9.140;2023-02-03T08:06:58;6.60;99.90
22984;DHT22;11658;48.908;9.140;2023-02-03T08:09:24;6.60;99.90
22984;DHT22;11658;48.908;9.140;2023-02-03T08:11:50;6.60;99.90
22984;DHT22;11658;48.908;9.140;2023-02-03T08:14:15;6.70;99.90
22984;DHT22;11658;48.908;9.140;2023-02-03T08:16:41;6.60;99.90
22984;DHT22;11658;48.908;9.140;2023-02-03T08:19:07;6.60;99.90
22984;DHT22;11658;48.908;9.140;2023-02-03T08:21:32;6.60;99.90
22984;DHT22;11658;48.908;9.140;2023-02-03T08:23:58;6.60;99.90
22984;DHT22;11658;48.908;9.140;2023-02-03T08:26:24;6.60;99.90
22984;DHT22;11658;48.908;9.140;2023-02-03T08:28:49;6.50;99.90
22984;DHT22;11658;48.908;9.140;2023-02-03T08:31:15;6.50;99.90
22984;DHT22;11658;48.908;9.140;2023-02-03T08:33:41;6.50;99.90
22984;DHT22;11658;48.908;9.140;2023-02-03T08:36:07;6.50;99.90
22984;DHT22;11658;48.908;9.140;2023-02-03T08:38:32;6.50;99.90
22984;DHT22;11658;48.908;9.140;2023-02-03T08:40:58;6.60;99.90
22984;DHT22;11658;48.908;9.140;2023-02-03T08:43:24;6.60;99.90
22984;DHT22;11658;48.908;9.140;2023-02-03T08:45:49;6.60;99.90
22984;DHT22;11658;48.908;9.140;2023-02-03T08:48:15;6.60;99.90
22984;DHT22;11658;48.908;9.140;2023-02-03T08:50:43;6.60;99.90
22984;DHT22;11658;48.908;9.140;2023-02-03T08:53:16;6.60;99.90
22984;DHT22;11658;48.908;9.140;2023-02-03T08:55:41;6.60;99.90
22984;DHT22;11658;48.908;9.140;2023-02-03T08:58:07;6.60;99.90
22984;DHT22;11658;48.908;9.140;2023-02-03T09:00:32;6.60;99.90
22984;DHT22;11658;48.908;9.140;2023-02-03T09:02:58;6.60;99.90
22984;DHT22;11658;48.908;9.140;2023-02-03T09:05:23;6.70;99.90
22984;DHT22;11658;48.908;9.140;2023-02-03T09:07:49;6.70;99.90
22984;DHT22;11658;48.908;9.140;2023-02-03T09:10:15;6.70;99.90
22984;DHT22;11658;48.908;9.140;2023-02-03T09:12:40;6.70;99.90
22984;DHT22;11658;48.908;9.140;2023-02-03T09:15:06;6.60;99.90
22984;DHT22;11658;48.908;9.140;2023-02-03T09:17:32;6.50;99.90
22984;DHT22;11658;48.908;9.140;2023-02-03T09:19:57;6.60;99.90
22984;DHT22;11658;48.908;9.140;2023-02-03T09:22:23;6.70;99.90
22984;DHT22;11658;48.908;9.140;2023-02-03T09:24:48;6.80;99.90
22984;DHT22;11658;48.908;9.140;2023-02-03T09:27:15;6.80;99.90
22984;DHT22;11658;48.908;9.140;2023-02-03T09:29:41;6.90;99.90
22984;DHT22;11658;48.908;9.140;2023-02-03T09:32:06;7.00;99.90
22984;DHT22;11658;48.908;9.140;2023-02-03T09:34:35;7.20;99.90
22984;DHT22;11658;48.908;9.140;2023-02-03T09:37:01;7.20;99.90
22984;DHT22;11658;48.908;9.140;2023-02-03T09:39:26;7.30;99.90
22984;DHT22;11658;48.908;9.140;2023-02-03T09:47:34;7.20;99.90
22984;DHT22;11658;48.908;9.140;2023-02-03T09:50:05;7.20;99.90
22984;DHT22;11658;48.908;9.140;2023-02-03T09:52:35;7.30;99.90
22984;DHT22;11658;48.908;9.140;2023-02-03T09:57:53;7.30;99.90
22984;DHT22;11658;48.908;9.140;2023-02-03T10:00:56;7.30;99.90
22984;DHT22;11658;48.908;9.140;2023-02-03T10:06:32;7.50;99.90
22984;DHT22;11658;48.908;9.140;2023-02-03T10:11:45;7.60;99.90
22984;DHT22;11658;48.908;9.140;2023-02-03T10:17:02;7.70;99.90
22984;DHT22;11658;48.908;9.140;2023-02-03T10:19:56;7.80;99.90
22984;DHT22;11658;48.908;9.140;2023-02-03T10:22:27;7.70;99.90
22984;DHT22;11658;48.908;9.140;2023-02-03T10:25:07;7.60;99.90
22984;DHT22;11658;48.908;9.140;2023-02-03T10:27:41;7.60;99.90
22984;DHT22;11658;48.908;9.140;2023-02-03T10:30:22;7.50;99.90
22984;DHT22;11658;48.908;9.140;2023-02-03T10:32:56;7.60;99.90
22984;DHT22;11658;48.908;9.140;2023-02-03T10:35:31;7.60;99.90
22984;DHT22;11658;48.908;9.140;2023-02-03T10:37:59;7.70;99.90
22984;DHT22;11658;48.908;9.140;2023-02-03T10:40:25;7.80;99.90
22984;DHT22;11658;48.908;9.140;2023-02-03T10:42:51;7.90;99.90
22984;DHT22;11658;48.908;9.140;2023-02-03T10:45:37;8.10;99.90
22984;DHT22;11658;48.908;9.140;2023-02-03T10:48:04;8.20;99.90
22984;DHT22;11658;48.908;9.140;2023-02-03T10:50:31;8.20;99.90
22984;DHT22;11658;48.908;9.140;2023-02-03T10:55:47;8.20;99.90
22984;DHT22;11658;48.908;9.140;2023-02-03T10:58:16;8.10;99.90
22984;DHT22;11658;48.908;9.140;2023-02-03T11:00:53;8.00;99.90
22984;DHT22;11658;48.908;9.140;2023-02-03T11:03:23;8.00;99.90
22984;DHT22;11658;48.908;9.140;2023-02-03T11:06:08;8.00;99.90
22984;DHT22;11658;48.908;9.140;2023-02-03T11:08:37;8.00;99.90
22984;DHT22;11658;48.908;9.140;2023-02-03T11:11:08;8.00;99.90
22984;DHT22;11658;48.908;9.140;2023-02-03T11:13:35;7.90;99.90
22984;DHT22;11658;48.908;9.140;2023-02-03T11:18:59;8.00;99.90
22984;DHT22;11658;48.908;9.140;2023-02-03T11:21:42;7.90;99.90
22984;DHT22;11658;48.908;9.140;2023-02-03T11:24:23;7.90;99.90
22984;DHT22;11658;48.908;9.140;2023-02-03T11:27:11;7.90;99.90
22984;DHT22;11658;48.908;9.140;2023-02-03T11:29:48;7.90;99.90
22984;DHT22;11658;48.908;9.140;2023-02-03T11:32:23;8.00;99.90
22984;DHT22;11658;48.908;9.140;2023-02-03T11:34:58;8.00;99.90
22984;DHT22;11658;48.908;9.140;2023-02-03T11:37:37;8.00;99.90
22984;DHT22;11658;48.908;9.140;2023-02-03T11:42:35;7.90;99.90
22984;DHT22;11658;48.908;9.140;2023-02-03T12:03:49;8.20;99.90
22984;DHT22;11658;48.908;9.140;2023-02-03T12:20:53;8.00;99.90
22984;DHT22;11658;48.908;9.140;2023-02-03T12:23:44;7.90;99.90
22984;DHT22;11658;48.908;9.140;2023-02-03T12:26:21;7.90;99.90
22984;DHT22;11658;48.908;9.140;2023-02-03T12:36:48;7.90;99.90
22984;DHT22;11658;48.908;9.140;2023-02-03T12:39:30;8.00;99.90
22984;DHT22;11658;48.908;9.140;2023-02-03T12:44:51;7.90;99.90
22984;DHT22;11658;48.908;9.140;2023-02-03T12:47:31;7.90;99.90
22984;DHT22;11658;48.908;9.140;2023-02-03T12:50:04;7.80;99.90
22984;DHT22;11658;48.908;9.140;2023-02-03T12:52:37;7.80;99.90
22984;DHT22;11658;48.908;9.140;2023-02-03T12:57:43;7.80;99.90
22984;DHT22;11658;48.908;9.140;2023-02-03T13:08:16;7.80;99.90
22984;DHT22;11658;48.908;9.140;2023-02-03T13:11:09;7.80;99.90
22984;DHT22;11658;48.908;9.140;2023-02-03T13:13:41;7.80;99.90
22984;DHT22;11658;48.908;9.140;2023-02-03T13:16:08;7.80;99.90
22984;DHT22;11658;48.908;9.140;2023-02-03T13:18:37;7.80;99.90
22984;DHT22;11658;48.908;9.140;2023-02-03T13:21:04;7.80;99.90
22984;DHT22;11658;48.908;9.140;2023-02-03T13:23:30;7.70;99.90
22984;DHT22;11658;48.908;9.140;2023-02-03T13:26:16;7.80;99.90
22984;DHT22;11658;48.908;9.140;2023-02-03T13:42:51;7.80;99.90
22984;DHT22;11658;48.908;9.140;2023-02-03T13:47:52;7.70;99.90
22984;DHT22;11658;48.908;9.140;2023-02-03T13:50:24;7.70;99.90
22984;DHT22;11658;48.908;9.140;2023-02-03T13:55:54;7.70;99.90
22984;DHT22;11658;48.908;9.140;2023-02-03T13:58:33;7.70;99.90
22984;DHT22;11658;48.908;9.140;2023-02-03T14:01:04;7.70;99.90
22984;DHT22;11658;48.908;9.140;2023-02-03T14:05:57;7.70;99.90
22984;DHT22;11658;48.908;9.140;2023-02-03T14:16:47;7.70;99.90
22984;DHT22;11658;48.908;9.140;2023-02-03T14:22:00;7.60;99.90
22984;DHT22;11658;48.908;9.140;2023-02-03T14:24:35;7.70;99.90
22984;DHT22;11658;48.908;9.140;2023-02-03T14:27:25;7.70;99.90
22984;DHT22;11658;48.908;9.140;2023-02-03T14:33:02;7.60;99.90
22984;DHT22;11658;48.908;9.140;2023-02-03T14:35:36;7.60;99.90
22984;DHT22;11658;48.908;9.140;2023-02-03T14:38:07;7.60;99.90
22984;DHT22;11658;48.908;9.140;2023-02-03T14:49:07;7.60;99.90
22984;DHT22;11658;48.908;9.140;2023-02-03T14:52:13;7.60;99.90
22984;DHT22;11658;48.908;9.140;2023-02-03T14:57:55;7.50;99.90
22984;DHT22;11658;48.908;9.140;2023-02-03T15:05:46;7.50;99.90
22984;DHT22;11658;48.908;9.140;2023-02-03T15:08:44;7.60;99.90
22984;DHT22;11658;48.908;9.140;2023-02-03T15:11:31;7.50;99.90
22984;DHT22;11658;48.908;9.140;2023-02-03T15:14:16;7.50;99.90
22984;DHT22;11658;48.908;9.140;2023-02-03T15:16:43;7.50;99.90
22984;DHT22;11658;48.908;9.140;2023-02-03T15:19:17;7.50;99.90
22984;DHT22;11658;48.908;9.140;2023-02-03T15:21:43;7.50;99.90
22984;DHT22;11658;48.908;9.140;2023-02-03T15:24:15;7.60;99.90
22984;DHT22;11658;48.908;9.140;2023-02-03T15:26:54;7.60;99.90
22984;DHT22;11658;48.908;9.140;2023-02-03T15:29:23;7.50;99.90
22984;DHT22;11658;48.908;9.140;2023-02-03T15:31:55;7.60;99.90
22984;DHT22;11658;48.908;9.140;2023-02-03T15:34:42;7.50;99.90
22984;DHT22;11658;48.908;9.140;2023-02-03T15:42:28;7.50;99.90
22984;DHT22;11658;48.908;9.140;2023-02-03T15:47:37;7.50;99.90
22984;DHT22;11658;48.908;9.140;2023-02-03T15:50:36;7.50;99.90
22984;DHT22;11658;48.908;9.140;2023-02-03T15:53:17;7.40;99.90
22984;DHT22;11658;48.908;9.140;2023-02-03T15:55:51;7.30;99.90
22984;DHT22;11658;48.908;9.140;2023-02-03T15:58:30;7.10;99.90
22984;DHT22;11658;48.908;9.140;2023-02-03T16:01:01;7.10;99.90
22984;DHT22;11658;48.908;9.140;2023-02-03T16:06:33;6.90;99.90
22984;DHT22;11658;48.908;9.140;2023-02-03T16:09:05;6.80;99.90
22984;DHT22;11658;48.908;9.140;2023-02-03T16:11:38;6.80;99.90
22984;DHT22;11658;48.908;9.140;2023-02-03T16:14:30;6.70;99.90
22984;DHT22;11658;48.908;9.140;2023-02-03T16:16:51;6.70;99.90
22984;DHT22;11658;48.908;9.140;2023-02-03T16:19:22;6.60;99.90
22984;DHT22;11658;48.908;9.140;2023-02-03T16:29:54;6.50;99.90
22984;DHT22;11658;48.908;9.140;2023-02-03T16:33:14;6.50;99.90
22984;DHT22;11658;48.908;9.140;2023-02-03T16:36:10;6.50;99.90
22984;DHT22;11658;48.908;9.140;2023-02-03T16:38:55;6.50;99.90
22984;DHT22;11658;48.908;9.140;2023-02-03T16:41:40;6.40;99.90
22984;DHT22;11658;48.908;9.140;2023-02-03T16:44:24;6.50;99.90
22984;DHT22;11658;48.908;9.140;2023-02-03T16:47:24;6.50;99.90
22984;DHT22;11658;48.908;9.140;2023-02-03T16:50:22;6.50;99.90
22984;DHT22;11658;48.908;9.140;2023-02-03T16:53:18;6.50;99.90
22984;DHT22;11658;48.908;9.140;2023-02-03T16:55:45;6.60;99.90
22984;DHT22;11658;48.908;9.140;2023-02-03T16:58:11;6.60;99.90
22984;DHT22;11658;48.908;9.140;2023-02-03T17:00:41;6.60;99.90
22984;DHT22;11658;48.908;9.140;2023-02-03T17:03:10;6.60;99.90
22984;DHT22;11658;48.908;9.140;2023-02-03T17:05:40;6.60;99.90
22984;DHT22;11658;48.908;9.140;2023-02-03T17:08:07;6.60;99.90
22984;DHT22;11658;48.908;9.140;2023-02-03T17:10:33;6.70;99.90
22984;DHT22;11658;48.908;9.140;2023-02-03T17:13:02;6.70;99.90
22984;DHT22;11658;48.908;9.140;2023-02-03T17:15:28;6.70;99.90
22984;DHT22;11658;48.908;9.140;2023-02-03T17:17:54;6.70;99.90
22984;DHT22;11658;48.908;9.140;2023-02-03T17:20:20;6.70;99.90
22984;DHT22;11658;48.908;9.140;2023-02-03T17:22:46;6.70;99.90
22984;DHT22;11658;48.908;9.140;2023-02-03T17:25:14;6.80;99.90
22984;DHT22;11658;48.908;9.140;2023-02-03T17:27:39;6.80;99.90
22984;DHT22;11658;48.908;9.140;2023-02-03T17:30:05;6.80;99.90
22984;DHT22;11658;48.908;9.140;2023-02-03T17:32:31;6.80;99.90
22984;DHT22;11658;48.908;9.140;2023-02-03T17:34:57;6.90;99.90
22984;DHT22;11658;48.908;9.140;2023-02-03T17:37:22;6.90;99.90
22984;DHT22;11658;48.908;9.140;2023-02-03T17:39:48;6.90;99.90
22984;DHT22;11658;48.908;9.140;2023-02-03T17:42:13;6.90;99.90
22984;DHT22;11658;48.908;9.140;2023-02-03T17:44:39;6.90;99.90
22984;DHT22;11658;48.908;9.140;2023-02-03T17:47:04;6.90;99.90
22984;DHT22;11658;48.908;9.140;2023-02-03T17:49:30;7.00;99.90
22984;DHT22;11658;48.908;9.140;2023-02-03T17:51:56;7.00;99.90
22984;DHT22;11658;48.908;9.140;2023-02-03T17:54:21;7.00;99.90
22984;DHT22;11658;48.908;9.140;2023-02-03T17:56:47;7.00;99.90
22984;DHT22;11658;48.908;9.140;2023-02-03T17:59:14;7.10;99.90
22984;DHT22;11658;48.908;9.140;2023-02-03T18:01:40;7.10;99.90
22984;DHT22;11658;48.908;9.140;2023-02-03T18:04:05;7.10;99.90
22984;DHT22;11658;48.908;9.140;2023-02-03T18:06:33;7.10;99.90
22984;DHT22;11658;48.908;9.140;2023-02-03T18:09:00;7.10;99.90
22984;DHT22;11658;48.908;9.140;2023-02-03T18:11:29;7.10;99.90
22984;DHT22;11658;48.908;9.140;2023-02-03T18:13:55;7.10;99.90
22984;DHT22;11658;48.908;9.140;2023-02-03T18:16:23;7.10;99.90
22984;DHT22;11658;48.908;9.140;2023-02-03T18:18:55;7.00;99.90
22984;DHT22;11658;48.908;9.140;2023-02-03T18:21:22;7.00;99.90
22984;DHT22;11658;48.908;9.140;2023-02-03T18:23:49;7.00;99.90
22984;DHT22;11658;48.908;9.140;2023-02-03T18:26:18;7.00;99.90
22984;DHT22;11658;48.908;9.140;2023-02-03T18:28:44;7.00;99.90
22984;DHT22;11658;48.908;9.140;2023-02-03T18:31:15;6.90;99.90
22984;DHT22;11658;48.908;9.140;2023-02-03T18:33:42;6.90;99.90
22984;DHT22;11658;48.908;9.140;2023-02-03T18:36:09;6.90;99.90
22984;DHT22;11658;48.908;9.140;2023-02-03T18:38:39;6.90;99.90
22984;DHT22;11658;48.908;9.140;2023-02-03T18:41:12;6.90;99.90
22984;DHT22;11658;48.908;9.140;2023-02-03T18:43:39;6.90;99.90
22984;DHT22;11658;48.908;9.140;2023-02-03T18:46:07;7.00;99.90
22984;DHT22;11658;48.908;9.140;2023-02-03T18:48:33;7.00;99.90
22984;DHT22;11658;48.908;9.140;2023-02-03T18:50:58;7.00;99.90
22984;DHT22;11658;48.908;9.140;2023-02-03T18:53:24;6.90;99.90
22984;DHT22;11658;48.908;9.140;2023-02-03T18:55:50;6.90;99.90
22984;DHT22;11658;48.908;9.140;2023-02-03T18:58:15;6.80;99.90
22984;DHT22;11658;48.908;9.140;2023-02-03T19:00:41;6.80;99.90
22984;DHT22;11658;48.908;9.140;2023-02-03T19:03:07;6.80;99.90
22984;DHT22;11658;48.908;9.140;2023-02-03T19:05:33;6.80;99.90
22984;DHT22;11658;48.908;9.140;2023-02-03T19:07:59;6.80;99.90
22984;DHT22;11658;48.908;9.140;2023-02-03T19:10:24;6.80;99.90
22984;DHT22;11658;48.908;9.140;2023-02-03T19:12:50;6.70;99.90
22984;DHT22;11658;48.908;9.140;2023-02-03T19:15:15;6.70;99.90
22984;DHT22;11658;48.908;9.140;2023-02-03T19:17:42;6.70;99.90
22984;DHT22;11658;48.908;9.140;2023-02-03T19:20:09;6.70;99.90
22984;DHT22;11658;48.908;9.140;2023-02-03T19:22:34;6.70;99.90
22984;DHT22;11658;48.908;9.140;2023-02-03T19:25:00;6.70;99.90
22984;DHT22;11658;48.908;9.140;2023-02-03T19:27:25;6.70;99.90
22984;DHT22;11658;48.908;9.140;2023-02-03T19:29:51;6.70;99.90
22984;DHT22;11658;48.908;9.140;2023-02-03T19:32:17;6.60;99.90
22984;DHT22;11658;48.908;9.140;2023-02-03T19:34:42;6.70;99.90
22984;DHT22;11658;48.908;9.140;2023-02-03T19:37:08;6.60;99.90
22984;DHT22;11658;48.908;9.140;2023-02-03T19:39:34;6.60;99.90
22984;DHT22;11658;48.908;9.140;2023-02-03T19:42:00;6.70;99.90
22984;DHT22;11658;48.908;9.140;2023-02-03T19:44:25;6.70;99.90
22984;DHT22;11658;48.908;9.140;2023-02-03T19:46:51;6.70;99.90
22984;DHT22;11658;48.908;9.140;2023-02-03T19:49:17;6.70;99.90
22984;DHT22;11658;48.908;9.140;2023-02-03T19:51:43;6.80;99.90
22984;DHT22;11658;48.908;9.140;2023-02-03T19:54:10;6.80;99.90
22984;DHT22;11658;48.908;9.140;2023-02-03T19:56:36;6.80;99.90
22984;DHT22;11658;48.908;9.140;2023-02-03T19:59:02;6.80;99.90
22984;DHT22;11658;48.908;9.140;2023-02-03T20:01:29;6.80;99.90
22984;DHT22;11658;48.908;9.140;2023-02-03T20:03:55;6.80;99.90
22984;DHT22;11658;48.908;9.140;2023-02-03T20:06:23;6.80;99.90
22984;DHT22;11658;48.908;9.140;2023-02-03T20:08:50;6.80;99.90
22984;DHT22;11658;48.908;9.140;2023-02-03T20:11:16;6.80;99.90
22984;DHT22;11658;48.908;9.140;2023-02-03T20:13:43;6.80;99.90
22984;DHT22;11658;48.908;9.140;2023-02-03T20:16:09;6.80;99.90
22984;DHT22;11658;48.908;9.140;2023-02-03T20:18:35;6.80;99.90
22984;DHT22;11658;48.908;9.140;2023-02-03T20:21:04;6.90;99.90
22984;DHT22;11658;48.908;9.140;2023-02-03T20:23:30;6.90;99.90
22984;DHT22;11658;48.908;9.140;2023-02-03T20:25:56;6.90;99.90
22984;DHT22;11658;48.908;9.140;2023-02-03T20:28:24;6.90;99.90
22984;DHT22;11658;48.908;9.140;2023-02-03T20:30:51;6.90;99.90
22984;DHT22;11658;48.908;9.140;2023-02-03T20:33:16;6.90;99.90
22984;DHT22;11658;48.908;9.140;2023-02-03T20:35:42;6.90;99.90
22984;DHT22;11658;48.908;9.140;2023-02-03T20:38:08;6.90;99.90
22984;DHT22;11658;48.908;9.140;2023-02-03T20:40:33;6.80;99.90
22984;DHT22;11658;48.908;9.140;2023-02-03T20:42:59;6.80;99.90
22984;DHT22;11658;48.908;9.140;2023-02-03T20:45:30;6.80;99.90
22984;DHT22;11658;48.908;9.140;2023-02-03T20:47:56;6.80;99.90
22984;DHT22;11658;48.908;9.140;2023-02-03T20:50:23;6.90;99.90
22984;DHT22;11658;48.908;9.140;2023-02-03T20:52:50;6.90;99.90
22984;DHT22;11658;48.908;9.140;2023-02-03T20:55:18;6.90;99.90
22984;DHT22;11658;48.908;9.140;2023-02-03T20:57:44;7.00;99.90
22984;DHT22;11658;48.908;9.140;2023-02-03T21:00:17;7.00;99.90
22984;DHT22;11658;48.908;9.140;2023-02-03T21:02:43;7.00;99.90
22984;DHT22;11658;48.908;9.140;2023-02-03T21:05:32;7.10;99.90
22984;DHT22;11658;48.908;9.140;2023-02-03T21:07:58;7.00;99.90
22984;DHT22;11658;48.908;9.140;2023-02-03T21:10:24;7.10;99.90
22984;DHT22;11658;48.908;9.140;2023-02-03T21:12:50;7.10;99.90
22984;DHT22;11658;48.908;9.140;2023-02-03T21:15:25;7.00;99.90
22984;DHT22;11658;48.908;9.140;2023-02-03T21:17:51;7.10;99.90
22984;DHT22;11658;48.908;9.140;2023-02-03T21:20:26;7.10;99.90
22984;DHT22;11658;48.908;9.140;2023-02-03T21:22:53;7.10;99.90
22984;DHT22;11658;48.908;9.140;2023-02-03T21:25:30;7.10;99.90
22984;DHT22;11658;48.908;9.140;2023-02-03T21:27:57;7.10;99.90
22984;DHT22;11658;48.908;9.140;2023-02-03T21:30:27;7.10;99.90
22984;DHT22;11658;48.908;9.140;2023-02-03T21:32:55;7.10;99.90
22984;DHT22;11658;48.908;9.140;2023-02-03T21:37:58;7.20;99.90
22984;DHT22;11658;48.908;9.140;2023-02-03T21:40:32;7.20;99.90
22984;DHT22;11658;48.908;9.140;2023-02-03T21:42:59;7.20;99.90
22984;DHT22;11658;48.908;9.140;2023-02-03T21:47:53;7.00;99.90
22984;DHT22;11658;48.908;9.140;2023-02-03T21:50:37;7.00;99.90
22984;DHT22;11658;48.908;9.140;2023-02-03T21:55:38;6.90;99.90
22984;DHT22;11658;48.908;9.140;2023-02-03T22:01:04;6.90;99.90
22984;DHT22;11658;48.908;9.140;2023-02-03T22:03:42;6.80;99.90
22984;DHT22;11658;48.908;9.140;2023-02-03T22:06:16;6.90;99.90
22984;DHT22;11658;48.908;9.140;2023-02-03T22:08:48;6.80;99.90
22984;DHT22;11658;48.908;9.140;2023-02-03T22:11:15;6.90;99.90
22984;DHT22;11658;48.908;9.140;2023-02-03T22:13:41;6.90;99.90
22984;DHT22;11658;48.908;9.140;2023-02-03T22:16:07;6.90;99.90
22984;DHT22;11658;48.908;9.140;2023-02-03T22:18:33;6.90;99.90
22984;DHT22;11658;48.908;9.140;2023-02-03T22:20:59;6.90;99.90
22984;DHT22;11658;48.908;9.140;2023-02-03T22:23:24;6.90;99.90
22984;DHT22;11658;48.908;9.140;2023-02-03T22:25:50;6.80;99.90
22984;DHT22;11658;48.908;9.140;2023-02-03T22:28:16;6.90;99.90
22984;DHT22;11658;48.908;9.140;2023-02-03T22:30:41;6.90;99.90
22984;DHT22;11658;48.908;9.140;2023-02-03T22:33:07;7.00;99.90
22984;DHT22;11658;48.908;9.140;2023-02-03T22:35:33;7.10;99.90
22984;DHT22;11658;48.908;9.140;2023-02-03T22:37:58;7.10;99.90
22984;DHT22;11658;48.908;9.140;2023-02-03T22:40:24;7.00;99.90
22984;DHT22;11658;48.908;9.140;2023-02-03T22:42:50;7.00;99.90
22984;DHT22;11658;48.908;9.140;2023-02-03T22:45:17;7.00;99.90